Terminal Aerodrome Forecast
Issued by NWS Twin Cities, MN

Home | Current Version | Previous Version | Text Only | Print | Product List | Glossary Off
Versions: 1 2 3 4 5 6 7 8 9 10 11 12 13 14 15 16 17 18

000
FTUS43 KMPX 181100
TAFSTC
TAF
KSTC 181120Z 1812/1912 12003KT 6SM BR BKN070 OVC100
     FM181300 12006KT P6SM BKN070 OVC100
     FM181700 12011KT P6SM SCT100 BKN200
     FM182100 12012G19KT P6SM SCT050 BKN100
     FM191100 13014G23KT 5SM -SHRA BR SCT020 OVC040=

USA.gov is the U.S. government's official web portal to all federal, state and local government web resources and services.